Menus déroulants Accueil 1ere page du site Compteur base de données HP : 4 077 085
Nombre recherches en cours : 17
Forum Moteur de recherche Lexique

image121-4.jpg


Base de données : Les 50 derniers HP entrés ou modifiés

Mise à jour : 29 ortobre 2017


Le choix des données affichées est volontairement limité au strict nécessaire pour commencer à sélectionner un haut-parleur : Fs, VAS et Qts.

En bas de ce chapitre vous avez les sélections a effectuer pour voir les paramètres THIELE et SMALL et les domaines d'utilisation du haut-parleur que vous choisirez.'


Liste des 50 derniers haut-parleurs entrés ou modifiés de la base :

Le dernier HP entré ou modifié est en début de tableau : Ordre inverse.
HP qui vient d'être entré : Date de création = date de modification.
HP qui vient d'être modifié : Date de création < date de modification. La date de création est en orange.
Sauf dans le cas d'une erreur flagrante, la modification ne concerne que la case "Avis" qui passe d'une valeur non renseignée, 0, à une autre valeur.

Choix
HP
Marque Référence Avis Diam
cm
Type Type
calculé
Impédance
normalisée
Fs
Hz
VAS
L
Qts Date de
création
Date de
modification
DYNAUDIO 15W75 vp moyenne de 4 6 14 --- G 8 Ohms 75.75 4.21 0.612 2019-05-21 2019-05-21
DYNAUDIO 15W75 vp A 6 14 --- G 8 Ohms 75.67 4.18 0.606 2019-05-21 2019-05-21
DYNAUDIO 15W75 vp B 6 14 --- G 8 Ohms 75.67 4.26 0.626 2019-05-21 2019-05-21
DYNAUDIO 15W75 vp C 6 14 --- G 8 Ohms 75.33 4.30 0.601 2019-05-21 2019-05-21
B et C 15 PE 40 0 38 --- BM 8 Ohms 44.00 205.00 0.270 2019-05-21 2019-05-21
DYNAUDIO 15W75 vp D 6 14 --- G 8 Ohms 76.33 4.08 0.600 2019-05-21 2019-05-21
DAYTON TCP 115 1 10 --- BM 2 Ohms 62.28 2.38 0.376 2019-05-20 2019-05-20
SPHYNX SP-W12-PRO-2 1 31 --- G 8 Ohms 33.00 284.00 0.574 2019-05-20 2019-05-20
FAITAL PRO 12XL1200 1 31 --- G 8 Ohms 50.00 20.80 0.418 2019-05-16 2019-05-16
FOCAL P25FS 2 25 CAR SUB 8 Ohms 30.00 25.00 0.784 2019-05-16 2019-05-16
FOCAL 10WM 2 25 CAR SUB 8 Ohms 31.00 28.00 0.683 2019-05-16 2019-05-16
CSS SDX12 DVC 3 31 --- G 4 Ohms 21.30 67.50 0.375 2013-05-14 2019-05-16
JBL GT5-10 2 25 CAR G 8 Ohms 30.00 31.50 0.498 2019-05-12 2019-05-12
FOCAL 130 AS WOOFER 2 14 CAR G 4 Ohms 92.91 3.26 0.711 2019-05-12 2019-05-12
EMINENCE KAPPA PRO 10A 1 25 --- PAV 8 Ohms 46.00 52.20 0.196 2019-05-11 2019-05-11
DAYTON TITANIC 3 31 CAR G 4 Ohms 36.30 44.00 0.506 2019-05-10 2019-05-10
SUPRAVOX 285 GMF vp Melaudia 6 31 LB BM 8 Ohms 59.28 97.41 0.375 2019-05-09 2019-05-09
SCAN SPEAK 18W/8535-01 1 17 --- G 8 Ohms 25.00 68.90 0.377 2019-05-09 2019-05-09
PEERLESS FSL-1015R02-08 1 25 --- G 8 Ohms 68.41 37.74 0.616 2019-05-09 2019-05-09
PEERLESS SLS-250S38CP00-04 1 25 --- G 4 Ohms 26.90 108.45 0.369 2019-05-09 2019-05-09
FOCAL ISU200 2 21 CAR G 4 Ohms 73.00 13.00 0.800 2019-05-08 2019-05-08
B et C 8 CL 51 1 21 --- BM 8 Ohms 69.00 12.50 0.408 2019-05-07 2019-05-07
PEERLESS GBS-250F38CP01-04 1 25 --- G 4 Ohms 37.69 23.93 0.451 2019-05-07 2019-05-07
AUDIO VALVES CKL200 3 21 --- BM 8 Ohms 53.80 32.08 0.313 2019-05-07 2019-05-07
FOSTEX FW 108 HS 1 10 --- BM 8 Ohms 65.00 3.60 0.462 2019-05-04 2019-05-04
BEYMA SM115 vp3 6 38 --- G 8 Ohms 34.99 282.91 0.335 2019-05-03 2019-05-03
BEYMA SM115 vp4 6 38 --- G 8 Ohms 35.50 310.55 0.339 2019-05-03 2019-05-03
BEYMA SM115 vp1 6 38 --- G 8 Ohms 35.88 314.17 0.355 2019-05-02 2019-05-02
BEYMA 18P1200Nd vp1 6 46 --- G 8 Ohms 43.79 116.92 0.376 2019-05-02 2019-05-02
BEYMA SM115 vp2 6 38 --- G 8 Ohms 35.38 295.83 0.365 2019-05-02 2019-05-02
BEYMA 18P1200Nd vp459 6 46 --- G 8 Ohms 43.79 124.94 0.376 2019-05-02 2019-05-02
BEYMA 15MC700ND 1 38 --- BM 8 Ohms 49.00 105.00 0.311 2019-05-01 2019-05-01
BEYMA SM115/K vp3 6 38 --- G 8 Ohms 39.03 147.50 0.333 2015-05-16 2019-04-29
BEYMA SM115/K 1 38 --- G 8 Ohms 29.00 273.00 0.249 2015-02-14 2019-04-29
FAITAL PRO 18XL1800 1 46 --- G 8 Ohms 29.00 185.80 0.403 2017-09-30 2019-04-28
FAITAL PRO 18XL1600 1 46 --- G 8 Ohms 32.00 195.50 0.356 2013-07-22 2019-04-28
FAITAL PRO 18XL2000 1 46 --- G 8 Ohms 28.00 202.40 0.272 2019-04-28 2019-04-28
MCM 55-2964 1 46 --- G 8 Ohms 27.00 630.60 0.313 2019-04-25 2019-04-25
CELESTION TF1020 v2019 5 25 --- BM 8 Ohms 79.00 22.10 0.386 2019-04-24 2019-04-24
LAVOCE NBASS08-20-8 5 21 --- G 8 Ohms 45.00 28.00 0.380 2018-10-16 2019-04-24
LAVOCE NBASS08-20 v2019 5 21 --- G 8 Ohms 55.00 18.00 0.476 2019-04-24 2019-04-24
DAVIS 25SCA10WR-8 v2018 5 25 --- G 8 Ohms 28.00 109.00 0.332 2019-04-17 2019-04-18
DAVIS 25SCA10WR 5 25 --- G 8 Ohms 24.61 237.71 0.327 2018-09-04 2019-04-18
PRV AUDIO 8MR600X 1 21 --- BM 8 Ohms 76.90 19.99 0.405 2019-04-17 2019-04-17
BEYMA 18LEX1000ND 1 46 --- G 8 Ohms 34.00 260.00 0.391 2019-04-17 2019-04-17
B et C 15DS115 1 38 --- PAV 8 Ohms 33.00 94.00 0.174 2018-10-18 2019-04-16
B et C 21IPAL 1 54 --- BM 1 Ohms 37.00 155.00 0.211 2017-06-12 2019-04-16
B ET W LF00057 6 17 --- BM 4 Ohms 50.85 18.76 0.263 2019-04-16 2019-04-16
B et C 21 DS 115 1 54 --- G 8 Ohms 30.00 269.00 0.234 2018-04-01 2019-04-16
B et C 21 IPAL - OEM 4 54 --- BM 2 Ohms 37.00 154.89 0.211 2013-07-29 2019-04-16


Sélection pour voir les Paramètres THIELE et SMALL et les Domaines d'utilisation du HP

Notez que le séparateur décimal est le point, et non pas la virgule, dans toute la base de données.
Si vous devez rentrer 0.65 Ohms dans la case résistance du filtre passif, vous entrez : zéro, point, six, cinq.'

Sélectionnez le HP souhaité en cliquant dans le rond devant le numéro du haut-parleur.


Température en °C (de 0 à 50°C) :
Altitude en m (de -300 à +4000 m) :
% Humidité relative en % (de 0 à 100%) :
Facteur d'amortissement de l'ampli (Infini si >=400) :
Résistance du filtre passif :
Nombre, montage et branchement :
Type de l'enceinte :
Données T&S :
Cas d'emploi :
Variantes de l'enceinte Bass-reflex :


navigation_bdhp.jpg


Valid HTML 4.01 Transitional

Merci pour votre visite.


Dôme acoustique : La conception des enceintes acoustiques.


Il y a un savoir vivre élémentaire qui consiste à demander l'autorisation avant de reprendre tout ou partie de ce qui est écrit dans ce chapitre.
Ne pas respecter ce droit élémentaire vous expose à des poursuites sous toutes les formes.